createdAt,value
2023-01-30T00:00:28.361Z,91.14
2023-01-30T00:01:28.370Z,90.95
2023-01-30T00:02:28.407Z,90.86
2023-01-30T00:03:28.377Z,90.95
2023-01-30T00:04:28.364Z,90.95
2023-01-30T00:05:28.370Z,91.24
2023-01-30T00:06:28.360Z,91.24
2023-01-30T00:07:28.358Z,91.24
2023-01-30T00:08:28.357Z,91.52
2023-01-30T00:09:28.364Z,90.95
2023-01-30T00:10:28.365Z,91.24
2023-01-30T00:11:28.367Z,91.43
2023-01-30T00:12:28.365Z,91.52
2023-01-30T00:13:28.359Z,91.24
2023-01-30T00:14:28.365Z,90.86
2023-01-30T00:15:28.366Z,91.24
2023-01-30T00:16:28.418Z,90.86
2023-01-30T00:17:28.366Z,91.62
2023-01-30T00:18:28.366Z,91.62
2023-01-30T00:19:28.359Z,91.43
2023-01-30T00:20:28.358Z,91.52
2023-01-30T00:21:28.358Z,91.43
2023-01-30T00:22:28.366Z,91.62
2023-01-30T00:23:28.376Z,91.62
2023-01-30T00:24:28.461Z,91.43
2023-01-30T00:25:28.691Z,91.43
2023-01-30T00:26:28.423Z,92.00
2023-01-30T00:27:28.359Z,91.81
2023-01-30T00:28:28.367Z,91.52
2023-01-30T00:29:28.374Z,91.52
2023-01-30T00:30:28.398Z,91.71
2023-01-30T00:31:28.415Z,91.71
2023-01-30T00:32:28.374Z,91.62
2023-01-30T00:33:28.365Z,91.71
2023-01-30T00:34:28.373Z,91.52
2023-01-30T00:35:28.527Z,91.71
2023-01-30T00:36:28.360Z,91.38
2023-01-30T00:37:28.367Z,91.33
2023-01-30T00:38:28.367Z,91.90
2023-01-30T00:39:28.367Z,91.66
2023-01-30T00:40:28.381Z,91.85
2023-01-30T00:41:28.368Z,91.71
2023-01-30T00:42:28.371Z,90.81
2023-01-30T00:43:28.361Z,90.81
2023-01-30T00:44:28.358Z,91.19
2023-01-30T00:45:28.414Z,91.09
2023-01-30T00:46:28.359Z,90.91
2023-01-30T00:47:28.371Z,90.91
2023-01-30T00:48:28.369Z,90.91
2023-01-30T00:49:28.363Z,91.66
2023-01-30T00:50:28.367Z,90.91
2023-01-30T00:51:28.369Z,91.00
2023-01-30T00:52:28.367Z,91.09
2023-01-30T00:53:28.371Z,91.38
2023-01-30T00:54:28.362Z,90.91
2023-01-30T00:55:28.361Z,91.57
2023-01-30T00:56:28.372Z,91.76
2023-01-30T00:57:28.374Z,91.76
2023-01-30T00:58:28.380Z,91.57
2023-01-30T00:59:28.386Z,92.04
2023-01-30T01:00:28.364Z,92.04
2023-01-30T01:01:28.390Z,91.76
2023-01-30T01:02:28.362Z,91.38
2023-01-30T01:03:28.372Z,91.57
2023-01-30T01:04:28.364Z,91.57
2023-01-30T01:05:28.364Z,91.57
2023-01-30T01:06:28.371Z,91.85
2023-01-30T01:07:28.373Z,92.14
2023-01-30T01:08:28.375Z,91.66
2023-01-30T01:09:28.373Z,92.23
2023-01-30T01:10:28.382Z,92.14
2023-01-30T01:11:28.366Z,91.76
2023-01-30T01:12:28.364Z,91.76
2023-01-30T01:13:28.365Z,91.38
2023-01-30T01:14:28.373Z,92.33
2023-01-30T01:15:28.373Z,91.76
2023-01-30T01:16:28.449Z,92.33
2023-01-30T01:17:28.373Z,92.23
2023-01-30T01:18:28.366Z,92.33
2023-01-30T01:19:28.374Z,92.14
2023-01-30T01:20:28.370Z,92.80
2023-01-30T01:21:28.383Z,92.80
2023-01-30T01:22:28.376Z,92.04
2023-01-30T01:23:28.371Z,92.61
2023-01-30T01:24:28.376Z,92.71
2023-01-30T01:25:28.377Z,92.33
2023-01-30T01:26:28.472Z,92.04
2023-01-30T01:27:28.378Z,92.04
2023-01-30T01:28:28.379Z,92.14
2023-01-30T01:29:28.384Z,91.85
2023-01-30T01:30:28.383Z,92.14
2023-01-30T01:31:28.560Z,92.04
2023-01-30T01:32:28.371Z,92.23
2023-01-30T01:33:28.374Z,92.33
2023-01-30T01:34:28.371Z,92.33
2023-01-30T01:35:28.392Z,92.23
2023-01-30T01:36:52.043Z,92.23
2023-01-30T01:37:28.375Z,92.33
2023-01-30T01:38:28.376Z,91.95
2023-01-30T01:39:28.376Z,92.14
2023-01-30T01:40:28.372Z,92.61
2023-01-30T01:41:28.389Z,92.61
2023-01-30T01:42:28.385Z,92.80
2023-01-30T01:43:28.383Z,92.14
2023-01-30T01:44:28.380Z,92.14
2023-01-30T01:45:28.377Z,92.23
2023-01-30T01:46:28.382Z,91.95
2023-01-30T01:47:28.384Z,92.33
2023-01-30T01:48:28.390Z,92.33
2023-01-30T01:49:28.376Z,92.52
2023-01-30T01:50:28.384Z,92.14
2023-01-30T01:51:28.387Z,92.33
2023-01-30T01:52:28.390Z,92.04
2023-01-30T01:53:28.385Z,92.04
2023-01-30T01:55:28.391Z,92.14
2023-01-30T01:56:28.387Z,91.95
2023-01-30T01:57:28.395Z,92.14
2023-01-30T01:58:28.388Z,92.14
2023-01-30T01:59:28.389Z,91.85
2023-01-30T02:00:28.389Z,91.76
2023-01-30T02:01:28.410Z,92.23
2023-01-30T02:02:28.453Z,91.66
2023-01-30T02:03:28.381Z,91.47
2023-01-30T02:04:28.391Z,91.85
2023-01-30T02:05:28.389Z,92.14
2023-01-30T02:06:28.396Z,91.95
2023-01-30T02:07:28.385Z,91.85
2023-01-30T02:08:28.392Z,91.95
2023-01-30T02:09:28.384Z,91.76
2023-01-30T02:10:28.395Z,91.76
2023-01-30T02:11:28.388Z,91.85
2023-01-30T02:12:28.395Z,92.14
2023-01-30T02:13:28.410Z,91.95
2023-01-30T02:14:28.394Z,91.76
2023-01-30T02:15:28.400Z,91.66
2023-01-30T02:16:28.385Z,91.76
2023-01-30T02:17:28.416Z,92.14
2023-01-30T02:18:28.386Z,92.14
2023-01-30T02:19:28.398Z,91.95
2023-01-30T02:20:28.406Z,92.23
2023-01-30T02:21:28.400Z,92.14
2023-01-30T02:22:28.408Z,92.23
2023-01-30T02:23:28.390Z,91.76
2023-01-30T02:24:28.388Z,91.76
2023-01-30T02:25:28.392Z,92.14
2023-01-30T02:26:28.442Z,92.04
2023-01-30T02:27:28.390Z,91.66
2023-01-30T02:28:28.387Z,91.76
2023-01-30T02:29:28.395Z,91.57
2023-01-30T02:30:28.501Z,91.47
2023-01-30T02:31:28.568Z,91.95
2023-01-30T02:32:28.390Z,92.14
2023-01-30T02:33:28.417Z,91.76
2023-01-30T02:34:28.415Z,91.76
2023-01-30T02:35:28.402Z,92.23
2023-01-30T02:36:28.397Z,91.76
2023-01-30T02:37:28.390Z,92.33
2023-01-30T02:38:28.397Z,92.42
2023-01-30T02:39:28.400Z,92.14
2023-01-30T02:40:28.397Z,91.85
2023-01-30T02:41:28.403Z,92.23
2023-01-30T02:42:28.392Z,92.04
2023-01-30T02:43:28.391Z,92.04
2023-01-30T02:44:28.397Z,91.95
2023-01-30T02:45:28.396Z,92.14
2023-01-30T02:46:28.401Z,92.04
2023-01-30T02:47:28.394Z,92.14
2023-01-30T02:48:28.404Z,92.61
2023-01-30T02:49:28.403Z,92.71
2023-01-30T02:50:28.394Z,92.52
2023-01-30T02:51:28.399Z,92.61
2023-01-30T02:52:28.400Z,92.61
2023-01-30T02:53:28.403Z,92.42
2023-01-30T02:54:28.402Z,92.52
2023-01-30T02:55:28.405Z,92.52
2023-01-30T02:56:28.406Z,93.08
2023-01-30T02:57:28.397Z,92.99
2023-01-30T02:58:28.395Z,92.80
2023-01-30T02:59:28.418Z,92.80
2023-01-30T03:00:28.396Z,92.71
2023-01-30T03:01:28.451Z,93.08
2023-01-30T03:02:28.464Z,92.71
2023-01-30T03:03:28.399Z,92.99
2023-01-30T03:04:28.400Z,92.99
2023-01-30T03:05:28.399Z,92.80
2023-01-30T03:06:28.408Z,92.90
2023-01-30T03:07:28.411Z,92.80
2023-01-30T03:08:28.411Z,92.80
2023-01-30T03:09:28.404Z,92.80
2023-01-30T03:10:28.402Z,92.71
2023-01-30T03:11:28.400Z,92.85
2023-01-30T03:12:28.409Z,92.85
2023-01-30T03:13:28.408Z,93.13
2023-01-30T03:14:28.403Z,93.13
2023-01-30T03:15:28.401Z,92.76
2023-01-30T03:16:28.428Z,92.76
2023-01-30T03:17:28.403Z,92.85
2023-01-30T03:18:28.412Z,93.51
2023-01-30T03:19:28.409Z,93.70
2023-01-30T03:20:28.414Z,93.70
2023-01-30T03:21:28.416Z,93.61
2023-01-30T03:22:28.404Z,93.80
2023-01-30T03:23:28.406Z,93.61
2023-01-30T03:24:28.406Z,93.61
2023-01-30T03:25:28.410Z,93.51
2023-01-30T03:26:28.432Z,93.70
2023-01-30T03:27:28.417Z,93.51
2023-01-30T03:28:28.407Z,93.41
2023-01-30T03:29:28.418Z,93.32
2023-01-30T03:30:28.415Z,93.41
2023-01-30T03:31:28.585Z,93.51
2023-01-30T03:32:28.443Z,93.51
2023-01-30T03:33:28.413Z,93.70
2023-01-30T03:34:28.411Z,93.23
2023-01-30T03:35:28.414Z,93.70
2023-01-30T03:36:28.415Z,93.99
2023-01-30T03:37:28.416Z,93.99
2023-01-30T03:38:28.423Z,93.70
2023-01-30T03:39:28.418Z,93.80
2023-01-30T03:40:28.415Z,94.37
2023-01-30T03:41:28.428Z,94.37
2023-01-30T03:42:28.422Z,94.18
2023-01-30T03:43:28.416Z,94.18
2023-01-30T03:44:28.447Z,94.08
2023-01-30T03:45:28.416Z,93.99
2023-01-30T03:46:28.444Z,94.27
2023-01-30T03:47:28.417Z,94.08
2023-01-30T03:48:28.421Z,94.56
2023-01-30T03:49:28.420Z,94.56
2023-01-30T03:50:28.429Z,94.08
2023-01-30T03:51:28.431Z,94.08
2023-01-30T03:52:28.427Z,94.08
2023-01-30T03:53:28.435Z,94.46
2023-01-30T03:54:28.430Z,94.65
2023-01-30T03:55:28.426Z,94.18
2023-01-30T03:56:28.421Z,94.46
2023-01-30T03:57:28.426Z,94.46
2023-01-30T03:58:28.426Z,94.08
2023-01-30T03:59:28.432Z,94.37
2023-01-30T04:00:28.453Z,94.56
2023-01-30T04:01:28.468Z,94.37
2023-01-30T04:02:28.505Z,94.46
2023-01-30T04:03:28.428Z,94.46
2023-01-30T04:04:28.435Z,94.56
2023-01-30T04:05:28.429Z,94.37
2023-01-30T04:06:28.433Z,94.37
2023-01-30T04:07:28.429Z,94.37
2023-01-30T04:08:28.436Z,94.27
2023-01-30T04:09:28.440Z,94.27
2023-01-30T04:10:28.429Z,94.37
2023-01-30T04:11:28.431Z,94.56
2023-01-30T04:12:28.437Z,94.46
2023-01-30T04:13:28.444Z,94.56
2023-01-30T04:14:28.445Z,94.27
2023-01-30T04:15:28.448Z,94.27
2023-01-30T04:16:28.529Z,94.37
2023-01-30T04:17:28.435Z,94.27
2023-01-30T04:18:28.437Z,94.37
2023-01-30T04:19:28.447Z,94.46
2023-01-30T04:20:28.438Z,94.56
2023-01-30T04:21:28.443Z,94.37
2023-01-30T04:22:28.439Z,94.46
2023-01-30T04:23:28.438Z,94.37
2023-01-30T04:24:28.454Z,94.46
2023-01-30T04:25:28.457Z,94.37
2023-01-30T04:26:28.514Z,94.37
2023-01-30T04:27:28.451Z,94.65
2023-01-30T04:28:28.456Z,94.56
2023-01-30T04:29:28.455Z,95.41
2023-01-30T04:30:28.523Z,94.51
2023-01-30T04:31:28.485Z,94.89
2023-01-30T04:32:28.473Z,95.22
2023-01-30T04:33:28.460Z,95.22
2023-01-30T04:34:28.446Z,95.12
2023-01-30T04:35:28.453Z,94.98
2023-01-30T04:36:28.455Z,94.98
2023-01-30T04:37:28.451Z,94.79
2023-01-30T04:38:28.451Z,95.36
2023-01-30T04:39:28.460Z,94.79
2023-01-30T04:40:28.461Z,94.98
2023-01-30T04:41:28.459Z,94.89
2023-01-30T04:42:28.451Z,95.07
2023-01-30T04:43:28.473Z,95.27
2023-01-30T04:44:28.452Z,94.98
2023-01-30T04:45:29.356Z,95.07
2023-01-30T04:46:28.464Z,95.55
2023-01-30T04:47:28.468Z,95.27
2023-01-30T04:48:28.487Z,95.07
2023-01-30T04:49:28.492Z,94.89
2023-01-30T04:50:28.466Z,95.36
2023-01-30T04:51:28.465Z,95.17
2023-01-30T04:52:28.462Z,95.31
2023-01-30T04:53:28.471Z,95.93
2023-01-30T04:54:28.470Z,95.55
2023-01-30T04:55:28.470Z,95.55
2023-01-30T04:56:28.464Z,95.55
2023-01-30T04:57:28.462Z,95.55
2023-01-30T04:58:28.467Z,96.03
2023-01-30T04:59:28.470Z,95.74
2023-01-30T05:00:28.606Z,95.65
2023-01-30T05:01:28.465Z,95.84
2023-01-30T05:02:28.473Z,96.12
2023-01-30T05:03:28.474Z,95.65
2023-01-30T05:04:28.500Z,96.12
2023-01-30T05:05:28.489Z,96.59
2023-01-30T05:06:28.472Z,96.31
2023-01-30T05:07:28.473Z,96.41
2023-01-30T05:08:28.473Z,96.59
2023-01-30T05:09:28.481Z,97.17
2023-01-30T05:10:28.492Z,96.78
2023-01-30T05:11:28.482Z,96.97
2023-01-30T05:12:28.481Z,96.92
2023-01-30T05:13:28.483Z,97.17
2023-01-30T05:14:28.483Z,97.17
2023-01-30T05:15:28.483Z,97.55
2023-01-30T05:16:28.485Z,97.26
2023-01-30T05:17:28.509Z,97.55
2023-01-30T05:18:28.486Z,97.17
2023-01-30T05:19:28.489Z,97.97
2023-01-30T05:20:28.498Z,97.88
2023-01-30T05:21:28.494Z,97.88
2023-01-30T05:22:28.490Z,98.82
2023-01-30T05:23:28.482Z,98.54
2023-01-30T05:24:28.489Z,98.78
2023-01-30T05:25:28.494Z,98.35
2023-01-30T05:26:28.546Z,98.44
2023-01-30T05:27:28.493Z,99.11
2023-01-30T05:28:28.493Z,98.59
2023-01-30T05:29:28.491Z,98.54
2023-01-30T05:30:28.532Z,99.20
2023-01-30T05:31:28.537Z,99.20
2023-01-30T05:32:28.487Z,99.01
2023-01-30T05:33:28.493Z,99.39
2023-01-30T05:34:28.487Z,99.58
2023-01-30T05:35:28.490Z,99.39
2023-01-30T05:36:28.518Z,99.77
2023-01-30T05:37:28.497Z,99.99
2023-01-30T05:38:28.490Z,99.99
2023-01-30T05:39:28.498Z,99.99
2023-01-30T05:40:28.492Z,99.99
2023-01-30T05:41:28.495Z,99.99
2023-01-30T05:42:28.500Z,99.99
2023-01-30T05:43:28.504Z,99.99
2023-01-30T05:44:28.497Z,99.99
2023-01-30T05:45:28.499Z,99.99
2023-01-30T05:46:28.513Z,99.99
2023-01-30T05:47:28.501Z,99.99
2023-01-30T05:48:28.504Z,99.99
2023-01-30T05:49:28.502Z,99.99
2023-01-30T05:50:28.506Z,99.99
2023-01-30T05:51:28.495Z,99.99
2023-01-30T05:52:28.530Z,99.99
2023-01-30T05:53:28.503Z,99.99
2023-01-30T05:54:28.506Z,99.99
2023-01-30T05:55:28.511Z,99.99
2023-01-30T05:56:28.505Z,99.99
2023-01-30T05:57:28.504Z,99.99
2023-01-30T05:58:28.508Z,99.99
2023-01-30T05:59:28.508Z,99.99
2023-01-30T06:00:28.506Z,99.99
2023-01-30T06:01:28.510Z,99.99
2023-01-30T06:02:28.588Z,99.99
2023-01-30T06:03:28.542Z,99.99
2023-01-30T06:04:28.511Z,99.99
2023-01-30T06:05:28.506Z,99.99
2023-01-30T06:06:28.511Z,99.99
2023-01-30T06:07:28.513Z,99.99
2023-01-30T06:08:28.526Z,99.99
2023-01-30T06:09:28.507Z,99.99
2023-01-30T06:10:28.504Z,99.99
2023-01-30T06:11:28.512Z,99.99
2023-01-30T06:12:28.510Z,99.99
2023-01-30T06:13:28.507Z,99.99
2023-01-30T06:14:28.513Z,99.99
2023-01-30T06:15:28.515Z,99.99
2023-01-30T06:16:28.574Z,99.99
2023-01-30T06:17:30.003Z,99.99
2023-01-30T06:18:28.512Z,99.99
2023-01-30T06:19:28.517Z,99.99
2023-01-30T06:20:28.517Z,99.99
2023-01-30T06:21:28.512Z,99.99
2023-01-30T06:22:28.510Z,99.99
2023-01-30T06:23:28.523Z,99.99
2023-01-30T06:24:28.549Z,99.99
2023-01-30T06:25:28.516Z,99.99
2023-01-30T06:26:28.555Z,99.99
2023-01-30T06:27:28.515Z,99.99
2023-01-30T06:28:28.519Z,99.99
2023-01-30T06:29:28.521Z,99.99
2023-01-30T06:30:28.570Z,99.99
2023-01-30T06:31:28.740Z,99.99
2023-01-30T06:32:28.527Z,99.99
2023-01-30T06:33:28.525Z,99.99
2023-01-30T06:34:28.513Z,99.99
2023-01-30T06:35:28.536Z,99.99
2023-01-30T06:36:28.522Z,99.99
2023-01-30T06:37:28.520Z,99.99
2023-01-30T06:38:28.532Z,99.99
2023-01-30T06:39:28.541Z,99.99
2023-01-30T06:40:28.542Z,99.99
2023-01-30T06:41:28.519Z,99.99
2023-01-30T06:42:28.525Z,99.99
2023-01-30T06:43:28.519Z,99.99
2023-01-30T06:44:28.517Z,99.99
2023-01-30T06:45:28.531Z,99.99
2023-01-30T06:46:28.613Z,99.99
2023-01-30T06:47:28.520Z,99.99
2023-01-30T06:48:28.522Z,99.99
2023-01-30T06:49:28.528Z,99.99
2023-01-30T06:50:28.529Z,99.99
2023-01-30T06:51:28.528Z,99.99
2023-01-30T06:52:28.524Z,99.99
2023-01-30T06:53:28.538Z,99.99
2023-01-30T06:54:28.531Z,99.99
2023-01-30T06:55:28.532Z,99.99
2023-01-30T06:56:28.555Z,99.99
2023-01-30T06:57:28.531Z,99.99
2023-01-30T06:58:28.641Z,99.99
2023-01-30T06:59:28.526Z,99.99
2023-01-30T07:00:28.529Z,99.99
2023-01-30T07:01:29.059Z,99.99
2023-01-30T07:02:28.537Z,99.99
2023-01-30T07:03:28.527Z,99.99
2023-01-30T07:04:28.584Z,99.99
2023-01-30T07:05:28.541Z,99.99
2023-01-30T07:06:28.532Z,99.99
2023-01-30T07:07:28.533Z,99.99
2023-01-30T07:08:28.539Z,99.99
2023-01-30T07:09:28.542Z,99.99
2023-01-30T07:10:28.541Z,99.99
2023-01-30T07:11:28.544Z,99.99
2023-01-30T07:12:28.567Z,99.99
2023-01-30T07:13:28.537Z,99.99
2023-01-30T07:14:28.565Z,99.99
2023-01-30T07:15:28.545Z,99.99
2023-01-30T07:16:28.591Z,99.99
2023-01-30T07:17:28.541Z,99.99
2023-01-30T07:18:28.539Z,99.99
2023-01-30T07:19:28.542Z,99.99
2023-01-30T07:20:28.666Z,99.99
2023-01-30T07:21:28.552Z,99.99
2023-01-30T07:22:28.564Z,99.99
2023-01-30T07:23:28.550Z,99.99
2023-01-30T07:24:28.552Z,99.99
2023-01-30T07:25:28.561Z,99.99
2023-01-30T07:26:28.576Z,99.99
2023-01-30T07:27:28.550Z,99.99
2023-01-30T07:28:28.577Z,99.99
2023-01-30T07:29:28.550Z,99.99
2023-01-30T07:30:28.579Z,99.99
2023-01-30T07:31:28.705Z,99.99
2023-01-30T07:32:28.559Z,99.99
2023-01-30T07:33:28.552Z,99.99
2023-01-30T07:34:28.555Z,99.99
2023-01-30T07:35:28.561Z,99.99
2023-01-30T07:36:28.562Z,99.99
2023-01-30T07:37:28.565Z,99.99
2023-01-30T07:38:28.568Z,99.99
2023-01-30T07:39:28.560Z,99.99
2023-01-30T07:40:28.643Z,99.99
2023-01-30T07:41:28.560Z,99.99
2023-01-30T07:42:28.567Z,99.99
2023-01-30T07:43:28.570Z,99.99
2023-01-30T07:44:28.593Z,99.99
2023-01-30T07:45:28.577Z,99.99
2023-01-30T07:46:28.569Z,99.99
2023-01-30T07:47:28.571Z,99.99
2023-01-30T07:48:28.580Z,99.99
2023-01-30T07:49:28.632Z,99.99
2023-01-30T07:50:28.736Z,99.99
2023-01-30T07:51:28.570Z,99.99
2023-01-30T07:52:28.583Z,99.99
2023-01-30T07:53:28.575Z,99.99
2023-01-30T07:54:28.572Z,99.99
2023-01-30T07:55:28.579Z,99.99
2023-01-30T07:56:28.576Z,99.99
2023-01-30T07:57:28.587Z,99.99
2023-01-30T07:58:29.980Z,99.99
2023-01-30T07:59:28.575Z,99.99
2023-01-30T08:00:28.613Z,99.99
2023-01-30T08:01:28.624Z,99.99
2023-01-30T08:02:28.581Z,99.99
2023-01-30T08:03:28.579Z,99.99
2023-01-30T08:04:28.648Z,99.99
2023-01-30T08:05:28.633Z,99.99
2023-01-30T08:06:28.594Z,99.99
2023-01-30T08:07:28.595Z,99.99
2023-01-30T08:08:28.598Z,99.99
2023-01-30T08:09:28.601Z,99.99
2023-01-30T08:10:28.628Z,99.99
2023-01-30T08:11:28.594Z,99.99
2023-01-30T08:12:28.591Z,99.99
2023-01-30T08:13:28.598Z,99.99
2023-01-30T08:14:28.595Z,99.99
2023-01-30T08:15:28.603Z,99.99
2023-01-30T08:16:28.697Z,99.99
2023-01-30T08:17:28.605Z,99.99
2023-01-30T08:18:28.602Z,99.99
2023-01-30T08:19:28.601Z,99.99
2023-01-30T08:20:28.644Z,99.99
2023-01-30T08:21:28.611Z,99.99
2023-01-30T08:22:28.604Z,99.99
2023-01-30T08:23:28.606Z,99.99
2023-01-30T08:24:28.614Z,99.99
2023-01-30T08:25:28.616Z,99.99
2023-01-30T08:26:28.679Z,99.92
2023-01-30T08:27:28.614Z,99.78
2023-01-30T08:28:28.614Z,98.69
2023-01-30T08:29:28.623Z,98.22
2023-01-30T08:30:28.721Z,97.55
2023-01-30T08:31:28.710Z,97.55
2023-01-30T08:32:28.641Z,96.17
2023-01-30T08:33:28.622Z,94.93
2023-01-30T08:34:28.625Z,93.79
2023-01-30T08:35:28.634Z,93.37
2023-01-30T08:36:28.631Z,92.22
2023-01-30T08:37:28.660Z,91.46
2023-01-30T08:38:28.636Z,90.36
2023-01-30T08:39:28.643Z,87.89
2023-01-30T08:40:28.649Z,88.12
2023-01-30T08:41:28.651Z,87.98
2023-01-30T08:42:28.667Z,87.26
2023-01-30T08:43:28.654Z,83.20
2023-01-30T08:44:28.659Z,82.43
2023-01-30T08:45:28.661Z,80.81
2023-01-30T08:46:28.788Z,81.81
2023-01-30T08:47:28.664Z,79.65
2023-01-30T08:48:36.739Z,79.85
2023-01-30T08:49:28.686Z,78.64
2023-01-30T08:50:28.675Z,78.97
2023-01-30T08:51:28.680Z,78.01
2023-01-30T08:52:28.699Z,77.19
2023-01-30T08:53:28.708Z,76.33
2023-01-30T08:55:11.237Z,72.16
2023-01-30T08:56:13.868Z,73.30
2023-01-30T08:57:11.251Z,71.87
2023-01-30T08:58:11.264Z,68.65
2023-01-30T08:59:11.266Z,68.46
2023-01-30T09:00:11.270Z,68.04
2023-01-30T09:01:11.358Z,69.41
2023-01-30T09:02:11.333Z,68.80
2023-01-30T09:03:11.286Z,69.27
2023-01-30T09:04:11.317Z,69.91
2023-01-30T09:06:11.305Z,72.17
2023-01-30T09:07:11.313Z,72.01
2023-01-30T09:08:11.318Z,72.30
2023-01-30T09:09:14.348Z,71.08
2023-01-30T09:10:11.321Z,71.43
2023-01-30T09:11:11.335Z,72.57
2023-01-30T09:12:11.333Z,73.77
2023-01-30T09:13:11.343Z,74.50
2023-01-30T09:14:11.354Z,75.84
2023-01-30T09:15:11.347Z,76.18
2023-01-30T09:16:11.509Z,77.13
2023-01-30T09:17:11.358Z,77.51
2023-01-30T09:18:11.371Z,77.98
2023-01-30T09:19:11.366Z,77.89
2023-01-30T09:20:11.395Z,78.03
2023-01-30T09:21:11.383Z,77.83
2023-01-30T09:22:11.381Z,77.74
2023-01-30T09:23:11.391Z,77.98
2023-01-30T09:24:11.389Z,78.37
2023-01-30T09:25:11.402Z,78.27
2023-01-30T09:26:11.487Z,78.75
2023-01-30T09:27:11.416Z,79.57
2023-01-30T09:28:11.418Z,79.47
2023-01-30T09:29:11.424Z,79.66
2023-01-30T09:30:11.426Z,80.04
2023-01-30T09:31:11.530Z,79.85
2023-01-30T09:32:11.457Z,80.42
2023-01-30T09:33:11.442Z,80.61
2023-01-30T09:34:11.444Z,80.86
2023-01-30T09:35:11.448Z,80.95
2023-01-30T09:36:11.474Z,81.52
2023-01-30T09:37:11.458Z,81.90
2023-01-30T09:38:11.454Z,81.81
2023-01-30T09:39:11.467Z,82.09
2023-01-30T09:40:11.462Z,82.09
2023-01-30T09:41:11.465Z,82.57
2023-01-30T09:42:11.470Z,83.04
2023-01-30T09:43:11.495Z,82.67
2023-01-30T09:44:11.476Z,83.42
2023-01-30T09:45:11.487Z,83.81
2023-01-30T09:46:11.574Z,83.52
2023-01-30T09:47:11.506Z,84.09
2023-01-30T09:48:11.495Z,83.52
2023-01-30T09:49:11.501Z,83.71
2023-01-30T09:50:11.501Z,83.62
2023-01-30T09:51:11.507Z,83.14
2023-01-30T09:52:11.553Z,82.95
2023-01-30T09:53:11.513Z,82.95
2023-01-30T09:54:11.526Z,82.67
2023-01-30T09:55:11.525Z,82.57
2023-01-30T09:56:11.519Z,82.76
2023-01-30T09:57:21.743Z,81.90
2023-01-30T09:58:11.531Z,82.15
2023-01-30T09:59:11.530Z,82.81
2023-01-30T10:00:11.545Z,82.34
2023-01-30T10:01:11.546Z,82.53
2023-01-30T10:02:11.543Z,82.62
2023-01-30T10:03:11.615Z,82.62
2023-01-30T10:04:11.653Z,82.91
2023-01-30T10:05:11.672Z,82.95
2023-01-30T10:06:11.572Z,82.51
2023-01-30T10:07:11.573Z,81.13
2023-01-30T10:08:11.596Z,79.99
2023-01-30T10:09:11.566Z,79.17
2023-01-30T10:10:11.579Z,77.78
2023-01-30T10:11:11.579Z,76.73
2023-01-30T10:12:11.588Z,75.62
2023-01-30T10:13:11.590Z,73.43
2023-01-30T10:14:11.602Z,72.67
2023-01-30T10:15:11.596Z,71.75
2023-01-30T10:16:11.667Z,71.56
2023-01-30T10:17:11.613Z,71.56
2023-01-30T10:18:11.618Z,72.07
2023-01-30T10:19:11.651Z,72.07
2023-01-30T10:21:46.761Z,68.10
2023-01-30T10:59:38.796Z,69.29
2023-01-30T11:00:38.779Z,69.87
2023-01-30T11:01:38.826Z,69.77
2023-01-30T11:02:38.843Z,70.12
2023-01-30T11:03:38.809Z,70.78
2023-01-30T11:04:38.818Z,71.45
2023-01-30T11:05:38.815Z,72.08
2023-01-30T11:06:38.823Z,73.41
2023-01-30T11:07:38.833Z,73.89
2023-01-30T11:08:38.826Z,74.99
2023-01-30T11:09:38.838Z,75.28
2023-01-30T11:10:38.836Z,76.52
2023-01-30T11:11:38.849Z,77.76
2023-01-30T11:12:38.849Z,78.61
2023-01-30T11:13:38.853Z,78.90
2023-01-30T11:14:41.750Z,79.05
2023-01-30T11:15:38.890Z,79.72
2023-01-30T11:16:38.867Z,79.72
2023-01-30T11:17:38.905Z,79.81
2023-01-30T11:19:18.311Z,80.66
2023-01-30T11:19:40.466Z,79.85
2023-01-30T11:20:38.891Z,80.08
2023-01-30T11:21:44.276Z,79.70
2023-01-30T11:22:38.901Z,78.22
2023-01-30T11:23:38.912Z,76.16
2023-01-30T11:25:26.455Z,73.52
2023-01-30T11:26:34.690Z,73.47
2023-01-30T11:27:26.488Z,72.45
2023-01-30T11:28:26.476Z,68.73
2023-01-30T11:29:26.521Z,67.62
2023-01-30T11:30:26.497Z,67.71
2023-01-30T11:31:40.441Z,67.52
2023-01-30T11:32:26.606Z,67.33
2023-01-30T11:33:26.511Z,67.91
2023-01-30T11:34:26.522Z,67.43
2023-01-30T11:35:26.527Z,67.91
2023-01-30T11:36:26.545Z,67.71
2023-01-30T11:37:26.545Z,67.84
2023-01-30T11:38:26.554Z,67.27
2023-01-30T11:39:26.572Z,67.14
2023-01-30T11:40:26.578Z,66.19
2023-01-30T11:42:19.150Z,65.52
2023-01-30T11:43:19.152Z,65.30
2023-01-30T11:44:19.166Z,65.67
2023-01-30T11:45:19.179Z,65.58
2023-01-30T11:46:19.175Z,66.25
2023-01-30T11:47:19.204Z,66.63
2023-01-30T11:48:33.959Z,67.01
2023-01-30T11:49:45.980Z,66.41
2023-01-30T11:50:28.581Z,66.22
2023-01-30T11:51:19.222Z,66.75
2023-01-30T11:52:19.230Z,67.58
2023-01-30T11:53:19.237Z,69.01
2023-01-30T11:54:19.243Z,69.48
2023-01-30T11:55:19.259Z,70.02
2023-01-30T11:56:19.258Z,70.88
2023-01-30T11:57:19.258Z,70.97
2023-01-30T11:58:19.296Z,71.83
2023-01-30T11:59:19.276Z,72.50
2023-01-30T12:00:19.932Z,71.93
2023-01-30T12:01:19.288Z,72.21
2023-01-30T12:02:19.351Z,72.69
2023-01-30T12:03:21.196Z,72.60
2023-01-30T12:04:19.312Z,72.78
2023-01-30T12:05:19.316Z,72.97
2023-01-30T12:06:19.317Z,72.50
2023-01-30T12:07:19.327Z,73.17
2023-01-30T12:08:24.729Z,72.69
2023-01-30T12:09:19.337Z,72.21
2023-01-30T12:10:19.888Z,72.02
2023-01-30T12:11:19.349Z,72.08
2023-01-30T12:12:19.361Z,72.56
2023-01-30T12:13:19.368Z,72.56
2023-01-30T12:14:19.366Z,72.94
2023-01-30T12:15:19.387Z,73.22
2023-01-30T12:16:19.434Z,73.61
2023-01-30T12:17:19.388Z,73.70
2023-01-30T12:18:19.396Z,74.37
2023-01-30T12:19:19.424Z,75.42
2023-01-30T12:20:19.779Z,76.33
2023-01-30T12:21:19.405Z,77.85
2023-01-30T12:22:19.411Z,78.71
2023-01-30T12:23:19.419Z,79.66
2023-01-30T12:24:19.442Z,80.38
2023-01-30T12:25:19.427Z,82.00
2023-01-30T12:26:19.472Z,83.29
2023-01-30T12:27:19.443Z,83.10
2023-01-30T12:28:19.438Z,85.10
2023-01-30T12:29:19.455Z,85.57
2023-01-30T12:30:19.822Z,85.76
2023-01-30T12:31:19.504Z,85.42
2023-01-30T12:32:19.458Z,85.61
2023-01-30T12:33:19.512Z,84.70
2023-01-30T12:34:20.228Z,83.94
2023-01-30T12:35:19.797Z,83.85
2023-01-30T12:36:19.478Z,83.75
2023-01-30T12:37:19.483Z,83.94
2023-01-30T12:38:19.499Z,83.47
2023-01-30T12:39:19.492Z,83.09
2023-01-30T12:40:19.508Z,82.80
2023-01-30T12:41:19.512Z,83.47
2023-01-30T12:42:21.509Z,83.09
2023-01-30T12:43:19.513Z,82.90
2023-01-30T12:44:19.523Z,82.84
2023-01-30T12:45:21.245Z,82.75
2023-01-30T12:46:19.603Z,82.18
2023-01-30T12:47:19.537Z,81.26
2023-01-30T12:48:19.552Z,80.88
2023-01-30T12:49:19.549Z,80.12
2023-01-30T12:50:19.562Z,79.64
2023-01-30T12:51:19.620Z,79.74
2023-01-30T12:52:19.575Z,78.59
2023-01-30T12:53:19.588Z,78.41
2023-01-30T12:54:20.430Z,78.12
2023-01-30T12:55:19.600Z,77.55
2023-01-30T12:56:19.605Z,77.36
2023-01-30T12:57:19.637Z,77.51
2023-01-30T12:58:19.609Z,77.80
2023-01-30T12:59:19.629Z,78.46
2023-01-30T13:00:20.022Z,78.46
2023-01-30T13:01:19.679Z,79.47
2023-01-30T13:02:19.684Z,78.99
2023-01-30T13:03:19.646Z,79.09
2023-01-30T13:04:19.654Z,79.38
2023-01-30T13:05:19.661Z,79.57
2023-01-30T13:06:19.673Z,79.47
2023-01-30T13:07:19.696Z,80.04
2023-01-30T13:08:19.679Z,80.52
2023-01-30T13:09:19.674Z,80.95
2023-01-30T13:10:20.149Z,81.90
2023-01-30T13:11:19.694Z,82.19
2023-01-30T13:12:19.702Z,82.38
2023-01-30T13:13:19.709Z,83.42
2023-01-30T13:14:19.716Z,83.76
2023-01-30T13:15:19.713Z,83.95
2023-01-30T13:16:19.780Z,84.24
2023-01-30T13:17:19.717Z,85.00
2023-01-30T13:18:19.730Z,85.28
2023-01-30T13:19:21.165Z,85.86
2023-01-30T13:20:20.120Z,86.14
2023-01-30T13:21:19.757Z,87.28
2023-01-30T13:22:19.744Z,87.38
2023-01-30T13:23:19.768Z,87.62
2023-01-30T13:24:19.748Z,88.09
2023-01-30T13:25:19.773Z,88.95
2023-01-30T13:26:19.839Z,89.42
2023-01-30T13:27:19.778Z,89.23
2023-01-30T13:28:19.769Z,89.52
2023-01-30T13:29:19.770Z,90.47
2023-01-30T13:30:20.189Z,90.66
2023-01-30T13:31:19.992Z,91.33
2023-01-30T13:32:19.822Z,91.71
2023-01-30T13:33:19.784Z,92.08
2023-01-30T13:34:19.784Z,91.71
2023-01-30T13:35:19.837Z,92.37